Bangui M'Poko International Airport Bangui CF
ICAO: FEFF
IATA: BGF
Category: Medium
Scheduled Services: Yes

Elevation: 1208 ft
TransAlt. 4200 ft.

Airport Communications:
RDO:655.9
TWR:119.7

FEFF Zoom In..

If you have problems with the map follow the link
https://www.worldairports.se/pages/airport.php?
ICAO=FEFF

Runways:

(A) RW 17 length 8530 ft width 148 ft
---- / hdg 166

(B) RW 35 length 8530 ft width 148 ft
ILS 110.30 / hdg 346

Location; FEFF
Day. 21 / Time. 12.00 Zulu
* QNH: 1009
* Temperature: 34° c. 93.2°f.
* Wind from: VRB° Speed 03 kn.
Dewpoint: 11° c.
Visibility: 8000 m.
No significant clouds are observed below 5000 ft.
No significant changes expected in the near future.

FEFF 211200Z VRB03KT 8000 NSC 34/11 Q1009 NOSIG


Wind From VRB°
Speed 03 kn.

 
 
jpsmedia worldairports.se 2020   terms of use